createdAt,value
2023-03-04T00:02:08.947Z,95.65
2023-03-04T00:04:35.443Z,93.07
2023-03-04T00:07:01.886Z,96.55
2023-03-04T00:09:28.277Z,101.78
2023-03-04T00:11:54.658Z,99.53
2023-03-04T00:14:21.343Z,95.38
2023-03-04T00:16:49.113Z,98.50
2023-03-04T00:19:15.640Z,94.97
2023-03-04T00:21:42.202Z,93.03
2023-03-04T00:24:10.621Z,90.82
2023-03-04T00:26:36.994Z,101.75
2023-03-04T00:29:03.375Z,98.47
2023-03-04T00:31:29.807Z,93.85
2023-03-04T00:33:56.207Z,92.35
2023-03-04T00:36:22.604Z,102.30
2023-03-04T00:38:49.005Z,100.50
2023-03-04T00:41:15.525Z,93.25
2023-03-04T00:43:41.892Z,91.40
2023-03-04T00:46:08.526Z,95.10
2023-03-04T00:48:35.017Z,90.97
2023-03-04T00:51:01.412Z,88.68
2023-03-04T00:53:27.865Z,83.72
2023-03-04T00:55:54.261Z,78.53
2023-03-04T00:58:20.710Z,76.57
2023-03-04T01:00:48.102Z,82.40
2023-03-04T01:03:14.500Z,82.55
2023-03-04T01:05:41.067Z,85.20
2023-03-04T01:08:13.353Z,83.45
2023-03-04T01:10:39.758Z,85.45
2023-03-04T01:13:06.242Z,98.78
2023-03-04T01:15:33.702Z,95.28
2023-03-04T01:18:00.150Z,156.60
2023-03-04T01:20:26.705Z,88.55
2023-03-04T01:22:53.119Z,80.75
2023-03-04T01:25:19.622Z,79.85
2023-03-04T01:27:51.905Z,78.18
2023-03-04T01:30:18.561Z,79.57
2023-03-04T01:32:44.984Z,73.80
2023-03-04T01:35:11.507Z,76.45
2023-03-04T01:37:37.976Z,85.55
2023-03-04T01:40:05.789Z,64.43
2023-03-04T01:42:35.952Z,68.18
2023-03-04T01:45:03.149Z,63.63
2023-03-04T01:47:31.706Z,73.95
2023-03-04T01:50:00.161Z,72.88
2023-03-04T01:52:27.866Z,70.03
2023-03-04T01:54:55.080Z,71.85
2023-03-04T01:57:24.017Z,71.55
2023-03-04T02:00:19.241Z,66.68
2023-03-04T02:02:48.106Z,61.95
2023-03-04T02:05:14.802Z,64.72
2023-03-04T02:07:43.674Z,64.97
2023-03-04T02:10:12.214Z,62.70
2023-03-04T02:12:39.629Z,71.55
2023-03-04T02:15:06.885Z,64.07
2023-03-04T02:17:33.559Z,68.88
2023-03-04T02:20:31.727Z,63.47
2023-03-04T02:23:10.789Z,55.53
2023-03-04T02:25:45.274Z,107.53
2023-03-04T02:28:11.843Z,64.15
2023-03-04T02:30:38.292Z,69.10
2023-03-04T02:33:04.956Z,63.35
2023-03-04T02:35:31.958Z,59.60
2023-03-04T02:37:58.349Z,54.92
2023-03-04T02:40:29.844Z,61.72
2023-03-04T02:43:00.093Z,57.78
2023-03-04T02:45:31.088Z,50.67
2023-03-04T02:47:57.487Z,51.80
2023-03-04T02:50:24.794Z,51.28
2023-03-04T02:52:51.174Z,54.17
2023-03-04T02:55:17.557Z,53.03
2023-03-04T02:57:43.928Z,53.42
2023-03-04T03:00:11.016Z,50.65
2023-03-04T03:02:37.416Z,53.85
2023-03-04T03:05:04.237Z,53.83
2023-03-04T03:07:30.592Z,55.00
2023-03-04T03:09:56.969Z,55.80
2023-03-04T03:12:23.356Z,54.53
2023-03-04T03:14:49.766Z,59.75
2023-03-04T03:17:16.193Z,55.08
2023-03-04T03:19:42.734Z,58.15
2023-03-04T03:22:09.431Z,60.83
2023-03-04T03:24:35.857Z,64.65
2023-03-04T03:27:02.368Z,61.28
2023-03-04T03:29:28.806Z,62.70
2023-03-04T03:31:56.831Z,62.65
2023-03-04T03:34:23.439Z,71.47
2023-03-04T03:36:49.980Z,75.10
2023-03-04T03:39:16.398Z,68.10
2023-03-04T03:41:42.790Z,77.82
2023-03-04T03:44:09.188Z,76.35
2023-03-04T03:46:35.678Z,74.03
2023-03-04T03:49:02.095Z,80.15
2023-03-04T03:51:28.663Z,71.75
2023-03-04T03:53:55.048Z,81.10
2023-03-04T03:56:21.455Z,78.15
2023-03-04T03:58:47.854Z,81.22
2023-03-04T04:01:15.356Z,80.78
2023-03-04T04:03:41.823Z,80.90
2023-03-04T04:06:08.233Z,85.32
2023-03-04T04:08:34.666Z,78.07
2023-03-04T04:11:01.163Z,92.32
2023-03-04T04:13:27.718Z,93.85
2023-03-04T04:15:54.329Z,83.60
2023-03-04T04:18:20.750Z,106.57
2023-03-04T04:20:47.469Z,83.78
2023-03-04T04:23:13.853Z,83.18
2023-03-04T04:25:40.262Z,92.70
2023-03-04T04:28:06.660Z,91.35
2023-03-04T04:30:33.101Z,87.25
2023-03-04T04:33:01.780Z,86.15
2023-03-04T04:35:28.678Z,86.72
2023-03-04T04:37:55.068Z,83.57
2023-03-04T04:40:21.521Z,82.97
2023-03-04T04:42:48.021Z,84.25
2023-03-04T04:45:14.397Z,78.68
2023-03-04T04:47:40.798Z,88.93
2023-03-04T04:50:07.510Z,86.00
2023-03-04T04:52:33.977Z,85.57
2023-03-04T04:55:00.466Z,85.93
2023-03-04T04:57:26.854Z,98.78
2023-03-04T04:59:53.244Z,83.72
2023-03-04T05:02:19.885Z,90.32
2023-03-04T05:04:46.346Z,82.75
2023-03-04T05:07:12.795Z,79.63
2023-03-04T05:09:39.184Z,84.07
2023-03-04T05:12:05.864Z,81.95
2023-03-04T05:14:32.287Z,74.35
2023-03-04T05:16:58.669Z,80.38
2023-03-04T05:19:25.231Z,77.72
2023-03-04T05:21:51.617Z,86.35
2023-03-04T05:24:18.113Z,87.30
2023-03-04T05:26:44.545Z,86.63
2023-03-04T05:29:10.927Z,87.53
2023-03-04T05:31:37.451Z,83.25
2023-03-04T05:34:04.030Z,83.88
2023-03-04T05:36:30.413Z,83.40
2023-03-04T05:38:57.202Z,78.97
2023-03-04T05:41:23.738Z,74.75
2023-03-04T05:43:50.420Z,79.97
2023-03-04T05:46:19.268Z,73.63
2023-03-04T05:48:45.834Z,74.60
2023-03-04T05:51:12.243Z,78.78
2023-03-04T05:53:39.932Z,71.75
2023-03-04T05:56:08.357Z,72.22
2023-03-04T05:58:34.887Z,74.72
2023-03-04T06:01:09.027Z,79.00
2023-03-04T06:03:35.688Z,84.80
2023-03-04T06:06:02.419Z,85.25
2023-03-04T06:08:28.895Z,75.95
2023-03-04T06:10:56.567Z,80.85
2023-03-04T06:13:23.645Z,76.53
2023-03-04T06:15:55.247Z,80.38
2023-03-04T06:18:22.400Z,83.45
2023-03-04T06:20:49.038Z,85.75
2023-03-04T06:23:15.712Z,79.55
2023-03-04T06:25:42.637Z,85.10
2023-03-04T06:28:09.127Z,83.10
2023-03-04T06:30:37.702Z,84.43
2023-03-04T06:33:04.082Z,91.60
2023-03-04T06:35:30.507Z,84.40
2023-03-04T06:37:57.036Z,93.68
2023-03-04T06:40:23.422Z,90.18
2023-03-04T06:42:49.814Z,89.18
2023-03-04T06:45:16.393Z,81.70
2023-03-04T06:47:44.562Z,83.90
2023-03-04T06:50:12.803Z,85.85
2023-03-04T06:52:39.838Z,77.68
2023-03-04T06:55:07.204Z,89.28
2023-03-04T06:57:33.628Z,74.35
2023-03-04T07:00:00.105Z,72.28
2023-03-04T07:02:26.521Z,69.75
2023-03-04T07:04:52.936Z,72.75
2023-03-04T07:07:19.331Z,70.43
2023-03-04T07:09:45.784Z,152.40
2023-03-04T07:12:12.154Z,98.72
2023-03-04T07:14:38.622Z,102.93
2023-03-04T07:17:05.088Z,105.53
2023-03-04T07:19:31.554Z,75.15
2023-03-04T07:21:58.014Z,71.95
2023-03-04T07:24:24.404Z,65.35
2023-03-04T07:26:50.776Z,65.72
2023-03-04T07:29:17.306Z,74.18
2023-03-04T07:31:43.964Z,68.75
2023-03-04T07:34:13.469Z,71.55
2023-03-04T07:36:40.634Z,73.63
2023-03-04T07:39:07.967Z,72.43
2023-03-04T07:41:37.658Z,69.72
2023-03-04T07:44:05.566Z,64.80
2023-03-04T07:46:32.371Z,63.42
2023-03-04T07:48:58.813Z,66.45
2023-03-04T07:51:27.316Z,68.22
2023-03-04T07:53:57.573Z,61.20
2023-03-04T07:56:27.486Z,63.75
2023-03-04T07:58:53.901Z,68.55
2023-03-04T08:01:34.649Z,63.40
2023-03-04T08:04:02.113Z,60.65
2023-03-04T08:06:28.919Z,61.30
2023-03-04T08:08:58.238Z,68.07
2023-03-04T08:11:25.389Z,67.28
2023-03-04T08:13:54.083Z,60.45
2023-03-04T08:16:22.320Z,62.58
2023-03-04T08:18:53.756Z,64.82
2023-03-04T08:21:23.761Z,62.50
2023-03-04T08:23:51.383Z,67.18
2023-03-04T08:26:27.827Z,60.15
2023-03-04T08:29:02.763Z,60.28
2023-03-04T08:31:32.120Z,55.83
2023-03-04T08:34:05.858Z,59.55
2023-03-04T08:36:33.384Z,61.88
2023-03-04T08:39:03.818Z,61.08
2023-03-04T08:41:30.327Z,63.17
2023-03-04T08:43:57.358Z,55.72
2023-03-04T08:46:23.829Z,57.80
2023-03-04T08:48:50.259Z,57.25
2023-03-04T08:51:17.121Z,54.83
2023-03-04T08:53:44.196Z,54.97
2023-03-04T08:56:11.553Z,58.65
2023-03-04T08:58:38.015Z,53.50
2023-03-04T09:01:07.203Z,49.63
2023-03-04T09:03:33.695Z,54.53
2023-03-04T09:06:01.794Z,60.60
2023-03-04T09:08:28.221Z,61.10
2023-03-04T09:10:55.263Z,52.13
2023-03-04T09:13:26.059Z,53.53
2023-03-04T09:15:53.340Z,52.13
2023-03-04T09:18:21.667Z,55.03
2023-03-04T09:20:48.792Z,58.35
2023-03-04T09:23:15.516Z,56.67
2023-03-04T09:25:42.731Z,58.00
2023-03-04T09:28:11.113Z,68.10
2023-03-04T09:30:37.530Z,61.03
2023-03-04T09:33:03.948Z,64.82
2023-03-04T09:35:30.430Z,61.88
2023-03-04T09:37:57.907Z,59.25
2023-03-04T09:40:50.762Z,66.50
2023-03-04T09:43:24.766Z,69.05
2023-03-04T09:45:54.995Z,61.63
2023-03-04T09:48:25.142Z,66.63
2023-03-04T09:51:13.763Z,70.82
2023-03-04T09:53:43.141Z,61.85
2023-03-04T09:56:11.545Z,66.53
2023-03-04T09:59:05.741Z,65.38
2023-03-04T10:01:38.922Z,63.70
2023-03-04T10:04:17.414Z,73.53
2023-03-04T10:06:51.492Z,64.50
2023-03-04T10:09:22.916Z,64.78
2023-03-04T10:12:01.585Z,65.63
2023-03-04T10:14:40.065Z,67.07
2023-03-04T10:17:47.865Z,68.93
2023-03-04T10:22:48.879Z,62.25
2023-03-04T10:25:29.518Z,68.43
2023-03-04T10:28:04.484Z,66.20
2023-03-04T10:30:44.114Z,61.90
2023-03-04T10:33:14.536Z,66.38
2023-03-04T10:35:46.247Z,59.20
2023-03-04T10:38:15.949Z,70.45
2023-03-04T10:40:44.548Z,66.35
2023-03-04T10:43:21.097Z,62.97
2023-03-04T10:45:48.931Z,62.77
2023-03-04T10:48:28.010Z,70.05
2023-03-04T10:50:55.062Z,58.92
2023-03-04T10:53:39.431Z,62.88
2023-03-04T10:56:39.010Z,64.68
2023-03-04T10:59:36.596Z,63.20
2023-03-04T11:02:16.410Z,70.55
2023-03-04T11:04:43.537Z,63.38
2023-03-04T11:07:10.903Z,83.53
2023-03-04T11:09:40.062Z,59.10
2023-03-04T11:12:14.280Z,63.22
2023-03-04T11:14:46.247Z,63.50
2023-03-04T11:17:26.368Z,62.08
2023-03-04T11:20:14.327Z,66.82
2023-03-04T11:22:43.547Z,58.03
2023-03-04T11:25:35.301Z,57.47
2023-03-04T11:28:11.547Z,61.40
2023-03-04T11:30:51.892Z,55.97
2023-03-04T11:33:29.393Z,60.78
2023-03-04T11:36:08.177Z,55.13
2023-03-04T11:38:48.970Z,58.40
2023-03-04T11:41:39.599Z,52.83
2023-03-04T11:44:08.742Z,57.97
2023-03-04T11:46:56.669Z,63.10
2023-03-04T11:49:57.928Z,57.10
2023-03-04T11:52:42.698Z,61.42
2023-03-04T11:55:09.153Z,62.55
2023-03-04T11:57:52.741Z,63.97
2023-03-04T12:00:31.256Z,61.92
2023-03-04T12:03:25.832Z,61.25
2023-03-04T12:06:28.499Z,60.10
2023-03-04T12:09:04.024Z,61.95
2023-03-04T12:11:45.632Z,59.97
2023-03-04T12:14:41.314Z,58.13
2023-03-04T12:17:29.373Z,53.03
2023-03-04T12:19:58.833Z,59.70
2023-03-04T12:22:41.522Z,89.28
2023-03-04T12:25:23.326Z,59.20
2023-03-04T12:28:27.776Z,51.92
2023-03-04T12:31:13.043Z,56.92
2023-03-04T12:34:30.348Z,63.38
2023-03-04T12:37:12.862Z,62.40
2023-03-04T12:40:00.682Z,66.88
2023-03-04T12:42:54.869Z,64.53
2023-03-04T12:45:44.048Z,59.80
2023-03-04T12:48:23.187Z,56.45
2023-03-04T12:51:17.956Z,58.33
2023-03-04T12:54:18.603Z,60.50
2023-03-04T12:56:52.433Z,56.67
2023-03-04T12:59:22.055Z,55.65
2023-03-04T13:02:18.362Z,53.28
2023-03-04T13:04:47.807Z,61.05
2023-03-04T13:07:37.979Z,64.43
2023-03-04T13:10:17.893Z,68.50
2023-03-04T13:12:59.470Z,65.47
2023-03-04T13:15:25.796Z,61.78
2023-03-04T13:17:54.848Z,61.95
2023-03-04T13:20:24.304Z,59.22
2023-03-04T13:23:09.416Z,56.17
2023-03-04T13:25:47.935Z,67.85
2023-03-04T13:28:22.886Z,59.00
2023-03-04T13:30:56.102Z,65.20
2023-03-04T13:33:23.570Z,60.17
2023-03-04T13:35:54.482Z,58.85
2023-03-04T13:38:28.464Z,60.13
2023-03-04T13:41:16.668Z,52.45
2023-03-04T13:43:45.242Z,50.78
2023-03-04T13:46:20.967Z,54.22
2023-03-04T13:48:51.645Z,53.45
2023-03-04T13:51:41.484Z,55.35
2023-03-04T13:54:19.053Z,50.35
2023-03-04T13:57:17.184Z,50.95
2023-03-04T13:59:49.047Z,54.55
2023-03-04T14:02:19.959Z,54.78
2023-03-04T14:05:00.116Z,54.40
2023-03-04T14:07:36.497Z,52.05
2023-03-04T14:12:51.018Z,56.33
2023-03-04T14:15:31.359Z,50.88
2023-03-04T14:18:00.020Z,53.60
2023-03-04T14:20:28.437Z,52.55
2023-03-04T14:22:55.991Z,54.60
2023-03-04T14:25:28.114Z,54.17
2023-03-04T14:28:20.050Z,58.17
2023-03-04T14:30:54.707Z,58.20
2023-03-04T14:33:24.894Z,48.70
2023-03-04T14:35:55.031Z,57.15
2023-03-04T14:38:35.317Z,48.55
2023-03-04T14:41:10.221Z,52.75
2023-03-04T14:44:02.440Z,52.58
2023-03-04T14:46:40.790Z,51.40
2023-03-04T14:49:12.312Z,57.28
2023-03-04T14:51:47.910Z,53.20
2023-03-04T14:54:43.761Z,49.00
2023-03-04T14:57:21.095Z,53.55
2023-03-04T14:59:47.689Z,53.03
2023-03-04T15:02:23.142Z,45.33
2023-03-04T15:04:51.276Z,56.58
2023-03-04T15:07:24.529Z,54.58
2023-03-04T15:09:55.513Z,47.83
2023-03-04T15:12:26.227Z,54.95
2023-03-04T15:14:58.679Z,50.20
2023-03-04T15:17:37.455Z,55.63
2023-03-04T15:20:09.822Z,51.17
2023-03-04T15:22:45.137Z,45.72
2023-03-04T15:25:15.835Z,46.90
2023-03-04T15:27:44.020Z,54.00
2023-03-04T15:30:17.950Z,55.38
2023-03-04T15:32:44.348Z,57.88
2023-03-04T15:35:15.484Z,55.90
2023-03-04T15:37:42.798Z,51.85
2023-03-04T15:40:24.206Z,51.33
2023-03-04T15:42:50.734Z,48.70
2023-03-04T15:45:38.382Z,44.63
2023-03-04T15:48:09.512Z,45.00
2023-03-04T15:50:43.162Z,62.20
2023-03-04T15:53:37.128Z,49.22
2023-03-04T15:56:08.129Z,51.70
2023-03-04T15:58:35.329Z,51.92
2023-03-04T16:01:02.115Z,51.83
2023-03-04T16:03:28.628Z,51.13
2023-03-04T16:05:55.107Z,51.50
2023-03-04T16:08:22.847Z,59.00
2023-03-04T16:10:50.732Z,56.33
2023-03-04T16:13:19.696Z,55.30
2023-03-04T16:15:47.630Z,57.38
2023-03-04T16:18:15.708Z,56.78
2023-03-04T16:20:46.011Z,52.58
2023-03-04T16:23:22.358Z,53.20
2023-03-04T16:28:17.274Z,55.35
2023-03-04T16:30:43.803Z,50.30
2023-03-04T16:33:11.372Z,54.42
2023-03-04T16:35:39.533Z,51.78
2023-03-04T16:38:17.028Z,57.25
2023-03-04T16:40:43.427Z,51.95
2023-03-04T16:43:12.948Z,55.47
2023-03-04T16:45:39.438Z,51.88
2023-03-04T16:48:05.867Z,50.85
2023-03-04T16:50:32.547Z,53.45
2023-03-04T16:52:58.970Z,58.63
2023-03-04T16:55:30.977Z,53.40
2023-03-04T16:57:57.918Z,58.25
2023-03-04T17:00:26.913Z,56.03
2023-03-04T17:03:00.295Z,59.80
2023-03-04T17:05:33.779Z,56.03
2023-03-04T17:08:00.173Z,54.63
2023-03-04T17:10:26.656Z,54.75
2023-03-04T17:12:53.440Z,51.70
2023-03-04T17:15:20.257Z,55.13
2023-03-04T17:17:46.906Z,55.65
2023-03-04T17:20:16.274Z,58.33
2023-03-04T17:22:43.128Z,56.67
2023-03-04T17:25:10.496Z,54.50
2023-03-04T17:27:36.924Z,60.85
2023-03-04T17:30:06.732Z,55.42
2023-03-04T17:32:33.859Z,58.85
2023-03-04T17:35:00.379Z,50.08
2023-03-04T17:37:27.249Z,51.42
2023-03-04T17:39:53.766Z,51.53
2023-03-04T17:42:20.546Z,49.97
2023-03-04T17:44:47.442Z,54.35
2023-03-04T17:47:14.490Z,47.28
2023-03-04T17:49:40.895Z,54.60
2023-03-04T17:52:10.549Z,54.17
2023-03-04T17:54:37.883Z,54.50
2023-03-04T17:57:04.663Z,52.97
2023-03-04T17:59:31.234Z,59.33
2023-03-04T18:01:57.740Z,46.05
2023-03-04T18:04:24.195Z,49.60
2023-03-04T18:06:50.661Z,50.90
2023-03-04T18:09:17.066Z,45.83
2023-03-04T18:11:43.610Z,46.55
2023-03-04T18:14:12.662Z,50.33
2023-03-04T18:16:40.365Z,52.92
2023-03-04T18:19:06.927Z,48.85
2023-03-04T18:21:33.342Z,50.95
2023-03-04T18:23:59.780Z,50.38
2023-03-04T18:26:26.871Z,50.63
2023-03-04T18:28:54.718Z,47.60
2023-03-04T18:31:23.621Z,45.63
2023-03-04T18:33:50.178Z,47.88
2023-03-04T18:36:16.936Z,48.83
2023-03-04T18:38:44.373Z,53.38
2023-03-04T18:41:13.559Z,49.20
2023-03-04T18:43:40.567Z,52.95
2023-03-04T18:46:08.682Z,50.80
2023-03-04T18:48:43.425Z,49.72
2023-03-04T18:51:09.844Z,48.25
2023-03-04T18:53:36.460Z,53.03
2023-03-04T19:33:43.608Z,53.88
2023-03-04T19:36:10.430Z,57.58
2023-03-04T19:38:37.287Z,56.08
2023-03-04T19:41:15.911Z,58.95
2023-03-04T19:43:42.886Z,60.28
2023-03-04T19:46:10.891Z,58.70
2023-03-04T19:48:39.186Z,62.33
2023-03-04T19:51:21.456Z,60.40
2023-03-04T19:53:48.530Z,59.92
2023-03-04T19:56:16.736Z,57.85
2023-03-04T19:58:43.220Z,60.00
2023-03-04T20:01:28.191Z,58.58
2023-03-04T20:03:59.393Z,64.22
2023-03-04T20:06:27.103Z,62.05
2023-03-04T20:08:57.245Z,65.70
2023-03-04T20:11:24.113Z,64.90
2023-03-04T20:13:50.501Z,66.60
2023-03-04T20:16:17.396Z,62.03
2023-03-04T20:18:44.007Z,64.63
2023-03-04T20:21:11.326Z,69.03
2023-03-04T20:23:38.941Z,68.47
2023-03-04T20:26:06.029Z,69.63
2023-03-04T20:28:32.896Z,68.63
2023-03-04T20:31:26.092Z,71.80
2023-03-04T20:33:55.422Z,67.43
2023-03-04T20:36:24.327Z,69.45
2023-03-04T20:38:55.840Z,65.32
2023-03-04T20:41:28.022Z,71.35
2023-03-04T20:43:54.464Z,66.50
2023-03-04T20:46:33.279Z,74.20
2023-03-04T20:49:10.884Z,70.28
2023-03-04T20:51:37.761Z,68.20
2023-03-04T20:54:05.334Z,63.03
2023-03-04T20:56:32.326Z,71.07
2023-03-04T20:59:01.374Z,67.80
2023-03-04T21:01:27.920Z,67.88
2023-03-04T21:03:54.515Z,82.88
2023-03-04T21:06:21.017Z,73.30
2023-03-04T21:08:47.557Z,66.78
2023-03-04T21:11:15.920Z,69.13
2023-03-04T21:13:43.186Z,64.60
2023-03-04T21:16:15.142Z,69.25
2023-03-04T21:18:43.311Z,72.30
2023-03-04T21:21:15.424Z,71.35
2023-03-04T21:23:45.916Z,69.57
2023-03-04T21:26:12.321Z,65.10
2023-03-04T21:28:38.789Z,72.00
2023-03-04T21:31:06.125Z,70.40
2023-03-04T21:33:36.434Z,66.22
2023-03-04T21:36:03.010Z,69.68
2023-03-04T21:38:29.500Z,66.57
2023-03-04T21:40:56.239Z,69.75
2023-03-04T21:43:23.737Z,81.80
2023-03-04T21:45:55.471Z,69.57
2023-03-04T21:48:25.336Z,71.88
2023-03-04T21:50:53.393Z,72.10
2023-03-04T21:53:21.739Z,76.75
2023-03-04T21:55:49.452Z,72.40
2023-03-04T21:58:15.883Z,74.40
2023-03-04T22:00:42.551Z,75.18
2023-03-04T22:03:08.970Z,71.07
2023-03-04T22:05:40.938Z,69.18
2023-03-04T22:08:07.461Z,81.13
2023-03-04T22:10:41.138Z,75.63
2023-03-04T22:13:10.359Z,82.70
2023-03-04T22:15:38.254Z,77.78
2023-03-04T22:18:06.792Z,73.63
2023-03-04T22:20:35.039Z,77.80
2023-03-04T22:23:01.748Z,77.75
2023-03-04T22:25:29.048Z,77.15
2023-03-04T22:27:56.708Z,74.18
2023-03-04T22:30:23.131Z,75.03
2023-03-04T22:32:51.085Z,75.47
2023-03-04T22:35:18.056Z,78.70
2023-03-04T22:37:45.975Z,69.88
2023-03-04T22:40:16.334Z,76.22
2023-03-04T22:42:47.229Z,73.43
2023-03-04T22:45:16.225Z,73.95
2023-03-04T22:47:52.741Z,81.75
2023-03-04T22:50:20.972Z,81.03
2023-03-04T22:52:48.541Z,68.80
2023-03-04T22:55:16.859Z,81.13
2023-03-04T22:57:43.738Z,80.80
2023-03-04T23:00:22.990Z,72.35
2023-03-04T23:02:50.225Z,74.70
2023-03-04T23:05:18.497Z,77.07
2023-03-04T23:07:44.880Z,73.70
2023-03-04T23:10:16.198Z,77.95
2023-03-04T23:12:42.874Z,66.15
2023-03-04T23:15:11.229Z,70.80
2023-03-04T23:17:37.651Z,72.22
2023-03-04T23:20:04.620Z,75.10
2023-03-04T23:22:32.396Z,75.93
2023-03-04T23:24:58.974Z,73.68
2023-03-04T23:27:25.681Z,76.90
2023-03-04T23:29:52.119Z,75.10
2023-03-04T23:32:18.643Z,74.45
2023-03-04T23:34:46.161Z,71.57
2023-03-04T23:37:12.556Z,76.18
2023-03-04T23:39:38.965Z,81.55
2023-03-04T23:42:05.464Z,73.90
2023-03-04T23:44:31.856Z,70.47
2023-03-04T23:46:59.329Z,69.95
2023-03-04T23:49:25.726Z,72.72
2023-03-04T23:51:52.123Z,73.30
2023-03-04T23:54:18.512Z,73.47
2023-03-04T23:56:44.930Z,68.47
2023-03-04T23:59:12.265Z,82.30
